createdAt,value
2023-03-06T00:01:28.571Z,2.50
2023-03-06T00:03:57.588Z,2.50
2023-03-06T00:06:24.392Z,2.50
2023-03-06T00:08:51.171Z,2.50
2023-03-06T00:11:18.249Z,2.50
2023-03-06T00:13:45.048Z,2.60
2023-03-06T00:16:12.207Z,2.60
2023-03-06T00:18:39.048Z,2.60
2023-03-06T00:21:08.960Z,2.60
2023-03-06T00:23:39.272Z,2.60
2023-03-06T00:26:07.086Z,2.50
2023-03-06T00:28:34.690Z,2.50
2023-03-06T00:31:01.767Z,2.50
2023-03-06T00:33:29.056Z,2.50
2023-03-06T00:35:55.861Z,2.50
2023-03-06T00:38:22.712Z,2.50
2023-03-06T00:40:49.494Z,2.40
2023-03-06T00:43:16.257Z,2.40
2023-03-06T00:45:43.128Z,2.40
2023-03-06T00:48:09.896Z,2.40
2023-03-06T00:50:36.759Z,2.40
2023-03-06T00:53:03.485Z,2.40
2023-03-06T00:55:31.223Z,2.40
2023-03-06T00:57:58.117Z,2.50
2023-03-06T01:00:27.157Z,2.40
2023-03-06T01:02:53.983Z,2.40
2023-03-06T01:05:22.200Z,2.50
2023-03-06T01:07:49.018Z,2.50
2023-03-06T01:10:15.892Z,2.40
2023-03-06T01:12:42.871Z,2.40
2023-03-06T01:15:11.345Z,2.50
2023-03-06T01:17:38.192Z,2.40
2023-03-06T01:20:05.375Z,2.50
2023-03-06T01:22:32.511Z,2.40
2023-03-06T01:24:59.762Z,2.40
2023-03-06T01:27:26.590Z,2.40
2023-03-06T01:29:53.621Z,2.40
2023-03-06T01:32:21.600Z,2.50
2023-03-06T01:34:48.522Z,2.50
2023-03-06T01:37:15.398Z,2.50
2023-03-06T01:39:42.248Z,2.50
2023-03-06T01:42:08.968Z,2.50
2023-03-06T01:44:35.719Z,2.50
2023-03-06T01:47:02.710Z,2.50
2023-03-06T01:49:35.440Z,2.40
2023-03-06T01:52:16.482Z,2.40
2023-03-06T01:54:46.665Z,2.50
2023-03-06T01:57:17.550Z,2.40
2023-03-06T01:59:45.014Z,2.40
2023-03-06T02:02:12.673Z,2.40
2023-03-06T02:04:40.703Z,2.40
2023-03-06T02:07:08.270Z,2.40
2023-03-06T02:09:36.377Z,2.40
2023-03-06T02:12:06.185Z,2.40
2023-03-06T02:14:32.964Z,2.40
2023-03-06T02:16:59.940Z,2.40
2023-03-06T02:19:45.069Z,2.40
2023-03-06T02:22:14.069Z,2.40
2023-03-06T02:24:46.797Z,2.40
2023-03-06T02:27:14.720Z,2.40
2023-03-06T02:29:42.273Z,2.40
2023-03-06T02:32:09.681Z,2.40
2023-03-06T02:34:36.485Z,2.40
2023-03-06T02:37:08.900Z,2.40
2023-03-06T02:39:38.906Z,2.40
2023-03-06T02:42:06.001Z,2.40
2023-03-06T02:44:33.815Z,2.30
2023-03-06T02:47:00.561Z,2.30
2023-03-06T02:49:27.480Z,2.30
2023-03-06T02:51:54.263Z,2.30
2023-03-06T02:54:21.053Z,2.30
2023-03-06T02:56:48.989Z,2.30
2023-03-06T02:59:15.835Z,2.30
2023-03-06T03:01:42.894Z,2.30
2023-03-06T03:04:10.055Z,2.30
2023-03-06T03:06:37.576Z,2.30
2023-03-06T03:09:04.514Z,2.30
2023-03-06T03:11:31.356Z,2.20
2023-03-06T03:13:58.477Z,2.20
2023-03-06T03:16:27.543Z,2.20
2023-03-06T03:18:58.076Z,2.20
2023-03-06T03:21:25.970Z,2.30
2023-03-06T03:23:54.592Z,2.20
2023-03-06T03:26:21.716Z,2.30
2023-03-06T03:28:55.556Z,2.20
2023-03-06T03:31:22.788Z,2.20
2023-03-06T03:33:50.196Z,2.20
2023-03-06T03:36:18.654Z,2.20
2023-03-06T03:38:47.212Z,2.20
2023-03-06T03:41:14.828Z,2.20
2023-03-06T03:43:42.741Z,2.20
2023-03-06T03:46:10.255Z,2.20
2023-03-06T03:48:37.498Z,2.20
2023-03-06T03:51:06.578Z,2.30
2023-03-06T03:53:35.763Z,2.20
2023-03-06T03:56:03.810Z,2.20
2023-03-06T03:58:32.953Z,2.20
2023-03-06T04:01:00.012Z,2.20
2023-03-06T04:03:26.835Z,2.20
2023-03-06T04:05:58.120Z,2.10
2023-03-06T04:08:26.059Z,2.10
2023-03-06T04:10:53.724Z,2.10
2023-03-06T04:13:22.237Z,2.10
2023-03-06T04:15:50.416Z,2.00
2023-03-06T04:18:18.895Z,2.10
2023-03-06T04:20:46.545Z,2.00
2023-03-06T04:23:13.765Z,2.10
2023-03-06T04:25:40.733Z,2.00
2023-03-06T04:28:11.197Z,2.00
2023-03-06T04:30:38.011Z,2.00
2023-03-06T04:33:05.578Z,2.00
2023-03-06T04:35:32.590Z,1.90
2023-03-06T04:38:04.124Z,1.90
2023-03-06T04:40:32.700Z,1.90
2023-03-06T04:43:00.192Z,2.00
2023-03-06T04:45:27.761Z,1.90
2023-03-06T04:47:54.768Z,1.90
2023-03-06T04:50:21.969Z,1.90
2023-03-06T04:52:48.784Z,1.90
2023-03-06T04:55:17.074Z,1.90
2023-03-06T04:57:45.281Z,1.90
2023-03-06T05:00:14.199Z,1.90
2023-03-06T05:02:41.999Z,1.90
2023-03-06T05:05:09.512Z,1.90
2023-03-06T05:07:36.554Z,1.90
2023-03-06T05:10:03.468Z,1.90
2023-03-06T05:12:30.249Z,1.90
2023-03-06T05:14:57.694Z,1.90
2023-03-06T05:17:24.487Z,1.90
2023-03-06T05:19:51.466Z,1.90
2023-03-06T05:22:18.456Z,1.80
2023-03-06T05:24:45.324Z,1.90
2023-03-06T05:27:12.100Z,1.90
2023-03-06T05:29:38.952Z,1.80
2023-03-06T05:32:05.899Z,1.80
2023-03-06T05:34:32.753Z,1.80
2023-03-06T05:37:01.667Z,1.80
2023-03-06T05:39:29.109Z,1.80
2023-03-06T05:41:55.884Z,1.80
2023-03-06T05:44:23.926Z,1.80
2023-03-06T05:46:50.788Z,1.80
2023-03-06T05:49:17.684Z,1.80
2023-03-06T05:51:44.440Z,1.80
2023-03-06T05:54:11.360Z,1.70
2023-03-06T05:56:38.169Z,1.70
2023-03-06T05:59:05.094Z,1.70
2023-03-06T06:01:31.916Z,1.70
2023-03-06T06:03:58.703Z,1.70
2023-03-06T06:06:25.520Z,1.70
2023-03-06T06:08:52.390Z,1.70
2023-03-06T06:11:20.804Z,1.70
2023-03-06T06:13:48.877Z,1.70
2023-03-06T06:16:16.461Z,1.70
2023-03-06T06:18:43.548Z,1.80
2023-03-06T06:21:11.393Z,1.70
2023-03-06T06:23:38.135Z,1.80
2023-03-06T06:26:06.183Z,1.80
2023-03-06T06:28:33.476Z,1.80
2023-03-06T06:31:00.296Z,1.80
2023-03-06T06:33:29.813Z,1.80
2023-03-06T06:35:56.603Z,1.80
2023-03-06T06:38:23.599Z,1.80
2023-03-06T06:41:25.547Z,1.90
2023-03-06T06:43:37.066Z,1.80
2023-03-06T06:46:28.247Z,1.90
2023-03-06T06:48:54.529Z,1.90
2023-03-06T06:51:22.961Z,2.00
2023-03-06T06:53:52.811Z,2.00
2023-03-06T06:56:19.511Z,1.90
2023-03-06T06:58:46.303Z,2.00
2023-03-06T07:01:13.396Z,2.00
2023-03-06T07:03:40.731Z,2.00
2023-03-06T07:06:08.016Z,2.00
2023-03-06T07:08:35.317Z,2.00
2023-03-06T07:11:09.828Z,2.00
2023-03-06T07:13:36.702Z,2.00
2023-03-06T07:16:03.561Z,2.00
2023-03-06T07:18:30.550Z,2.00
2023-03-06T07:20:57.940Z,2.00
2023-03-06T07:23:26.527Z,2.00
2023-03-06T07:25:53.838Z,2.10
2023-03-06T07:28:21.273Z,2.00
2023-03-06T07:30:48.425Z,2.10
2023-03-06T07:33:15.512Z,2.10
2023-03-06T07:35:42.616Z,2.10
2023-03-06T07:38:10.039Z,2.10
2023-03-06T07:40:38.884Z,2.20
2023-03-06T07:43:18.808Z,2.20
2023-03-06T07:45:57.850Z,2.20
2023-03-06T07:48:24.760Z,2.30
2023-03-06T07:50:55.439Z,2.30
2023-03-06T07:53:22.781Z,2.30
2023-03-06T07:55:49.584Z,2.40
2023-03-06T07:58:16.504Z,2.40
2023-03-06T08:00:43.321Z,2.50
2023-03-06T08:03:13.622Z,2.50
2023-03-06T08:05:40.473Z,2.60
2023-03-06T08:08:07.261Z,2.60
2023-03-06T08:10:34.314Z,2.70
2023-03-06T08:13:01.088Z,2.60
2023-03-06T08:15:27.936Z,2.70
2023-03-06T08:17:54.778Z,2.70
2023-03-06T08:20:21.738Z,2.70
2023-03-06T08:22:49.061Z,2.70
2023-03-06T08:25:15.806Z,2.60
2023-03-06T08:27:43.336Z,2.50
2023-03-06T08:30:10.527Z,2.50
2023-03-06T08:32:40.317Z,2.50
2023-03-06T08:35:20.770Z,2.50
2023-03-06T08:37:47.626Z,2.60
2023-03-06T08:40:14.484Z,2.50
2023-03-06T08:42:41.307Z,2.50
2023-03-06T08:45:08.400Z,2.60
2023-03-06T08:47:38.219Z,2.60
2023-03-06T08:50:05.346Z,2.60
2023-03-06T08:52:32.088Z,2.70
2023-03-06T08:55:03.390Z,2.70
2023-03-06T08:57:30.742Z,2.70
2023-03-06T08:59:57.627Z,2.80
2023-03-06T09:02:24.574Z,2.80
2023-03-06T09:04:51.536Z,2.80
2023-03-06T09:07:18.387Z,2.80
2023-03-06T09:09:45.410Z,2.90
2023-03-06T09:12:12.342Z,2.90
2023-03-06T09:14:39.117Z,2.90
2023-03-06T09:17:05.918Z,2.90
2023-03-06T09:19:33.037Z,2.90
2023-03-06T09:22:01.045Z,3.00
2023-03-06T09:24:29.884Z,3.00
2023-03-06T09:26:56.804Z,3.10
2023-03-06T09:29:23.629Z,3.10
2023-03-06T09:31:50.586Z,3.10
2023-03-06T09:34:17.435Z,3.10
2023-03-06T09:36:55.913Z,3.10
2023-03-06T09:39:24.024Z,3.10
2023-03-06T09:41:51.308Z,3.20
2023-03-06T09:44:26.206Z,3.20
2023-03-06T09:46:52.991Z,3.20
2023-03-06T09:49:30.331Z,3.20
2023-03-06T09:52:12.976Z,3.30
2023-03-06T09:54:42.499Z,3.30
2023-03-06T09:57:18.564Z,3.40
2023-03-06T09:59:47.543Z,3.40
2023-03-06T10:02:34.700Z,3.60
2023-03-06T10:05:04.109Z,3.50
2023-03-06T10:07:51.236Z,3.60
2023-03-06T10:10:25.700Z,3.60
2023-03-06T10:13:11.296Z,3.60
2023-03-06T10:15:41.573Z,3.60
2023-03-06T10:18:10.260Z,3.60
2023-03-06T10:20:41.474Z,3.60
2023-03-06T10:23:22.045Z,3.60
2023-03-06T10:25:48.882Z,3.60
2023-03-06T10:28:17.859Z,3.70
2023-03-06T10:30:50.533Z,3.80
2023-03-06T10:33:40.973Z,3.80
2023-03-06T10:36:12.244Z,3.80
2023-03-06T10:38:40.412Z,3.80
2023-03-06T10:41:13.333Z,3.90
2023-03-06T10:44:00.617Z,4.00
2023-03-06T10:46:35.447Z,4.10
2023-03-06T10:49:03.888Z,4.10
2023-03-06T10:51:31.160Z,4.10
2023-03-06T10:53:57.961Z,4.10
2023-03-06T10:56:28.268Z,4.10
2023-03-06T10:59:14.095Z,4.10
2023-03-06T11:01:42.422Z,4.10
2023-03-06T11:04:24.065Z,4.10
2023-03-06T11:07:07.855Z,4.00
2023-03-06T11:09:35.084Z,4.00
2023-03-06T11:12:20.761Z,4.00
2023-03-06T11:14:47.535Z,4.10
2023-03-06T11:17:27.660Z,4.10
2023-03-06T11:20:07.866Z,4.10
2023-03-06T11:22:34.868Z,4.10
2023-03-06T11:25:02.272Z,4.10
2023-03-06T11:27:34.578Z,4.10
2023-03-06T11:30:08.497Z,4.20
2023-03-06T11:32:52.339Z,4.20
2023-03-06T11:35:23.953Z,4.20
2023-03-06T11:38:04.280Z,4.30
2023-03-06T11:40:33.697Z,4.30
2023-03-06T11:43:26.771Z,4.30
2023-03-06T11:45:53.479Z,4.30
2023-03-06T11:48:20.321Z,4.40
2023-03-06T11:50:57.162Z,4.40
2023-03-06T11:53:37.823Z,4.40
2023-03-06T11:56:20.065Z,4.50
2023-03-06T11:59:09.424Z,4.50
2023-03-06T12:01:38.988Z,4.50
2023-03-06T12:04:24.158Z,4.50
2023-03-06T12:07:01.841Z,4.40
2023-03-06T12:09:38.284Z,4.40
2023-03-06T12:15:00.306Z,4.40
2023-03-06T12:17:27.168Z,4.40
2023-03-06T12:20:00.568Z,4.50
2023-03-06T12:22:29.101Z,4.60
2023-03-06T12:25:06.002Z,4.60
2023-03-06T12:27:38.862Z,4.70
2023-03-06T12:30:17.715Z,4.70
2023-03-06T12:32:52.251Z,4.70
2023-03-06T12:35:28.201Z,4.70
2023-03-06T12:37:58.341Z,4.70
2023-03-06T12:40:25.097Z,4.70
2023-03-06T12:43:01.261Z,4.80
2023-03-06T12:45:30.824Z,4.90
2023-03-06T12:47:58.098Z,4.90
2023-03-06T12:50:28.012Z,4.90
2023-03-06T12:52:56.304Z,4.90
2023-03-06T12:55:25.893Z,4.90
2023-03-06T12:57:52.987Z,4.90
2023-03-06T13:00:32.071Z,5.00
2023-03-06T13:03:10.210Z,4.90
2023-03-06T13:05:36.927Z,4.90
2023-03-06T13:08:03.670Z,5.00
2023-03-06T13:10:34.894Z,5.00
2023-03-06T13:13:04.969Z,4.90
2023-03-06T13:15:41.038Z,4.80
2023-03-06T13:18:23.369Z,4.80
2023-03-06T13:20:53.773Z,4.90
2023-03-06T13:23:29.831Z,4.80
2023-03-06T13:25:57.923Z,4.80
2023-03-06T13:28:45.411Z,4.90
2023-03-06T13:31:26.348Z,4.80
2023-03-06T13:33:53.984Z,4.80
2023-03-06T13:36:26.724Z,4.90
2023-03-06T13:39:02.607Z,4.90
2023-03-06T13:41:32.540Z,4.90
2023-03-06T13:44:04.932Z,5.00
2023-03-06T13:46:35.225Z,5.00
2023-03-06T13:49:16.246Z,5.00
2023-03-06T13:51:48.548Z,4.90
2023-03-06T13:54:21.522Z,4.90
2023-03-06T13:56:57.605Z,4.90
2023-03-06T13:59:43.189Z,4.90
2023-03-06T14:02:12.879Z,5.00
2023-03-06T14:04:53.434Z,5.00
2023-03-06T14:07:20.306Z,5.00
2023-03-06T14:09:50.362Z,5.10
2023-03-06T14:12:23.779Z,5.00
2023-03-06T14:15:10.854Z,5.10
2023-03-06T14:17:39.114Z,5.10
2023-03-06T14:20:16.284Z,5.10
2023-03-06T14:22:43.024Z,5.00
2023-03-06T14:25:12.882Z,5.00
2023-03-06T14:27:39.732Z,5.00
2023-03-06T14:30:26.726Z,4.90
2023-03-06T14:32:54.186Z,5.00
2023-03-06T14:35:24.169Z,5.00
2023-03-06T14:37:53.234Z,5.00
2023-03-06T14:40:30.432Z,5.00
2023-03-06T14:43:20.571Z,5.00
2023-03-06T14:45:48.703Z,4.90
2023-03-06T14:48:15.521Z,4.90
2023-03-06T14:50:47.162Z,4.90
2023-03-06T14:53:15.740Z,5.00
2023-03-06T14:55:47.759Z,5.00
2023-03-06T14:58:17.501Z,5.00
2023-03-06T15:00:47.144Z,4.90
2023-03-06T15:03:34.178Z,5.00
2023-03-06T15:06:01.003Z,5.00
2023-03-06T15:08:29.519Z,5.00
2023-03-06T15:10:58.229Z,5.00
2023-03-06T15:13:26.252Z,5.00
2023-03-06T15:15:57.822Z,5.00
2023-03-06T15:18:29.169Z,5.10
2023-03-06T15:21:06.074Z,5.10
2023-03-06T15:23:36.008Z,5.10
2023-03-06T15:26:23.076Z,5.10
2023-03-06T15:29:03.356Z,5.10
2023-03-06T15:31:40.084Z,5.20
2023-03-06T15:34:07.204Z,5.10
2023-03-06T15:36:34.737Z,5.10
2023-03-06T15:39:01.471Z,5.10
2023-03-06T15:41:28.319Z,5.10
2023-03-06T15:43:55.252Z,5.10
2023-03-06T15:46:22.002Z,5.00
2023-03-06T15:48:52.943Z,5.00
2023-03-06T15:51:19.774Z,5.00
2023-03-06T15:53:46.602Z,5.00
2023-03-06T15:56:13.940Z,5.10
2023-03-06T15:58:41.285Z,5.00
2023-03-06T16:01:13.256Z,5.00
2023-03-06T16:03:39.982Z,5.00
2023-03-06T16:06:06.779Z,5.10
2023-03-06T16:08:33.532Z,5.00
2023-03-06T16:11:00.541Z,5.00
2023-03-06T16:13:28.335Z,4.90
2023-03-06T16:15:55.217Z,4.90
2023-03-06T16:18:22.005Z,4.90
2023-03-06T16:20:49.249Z,4.90
2023-03-06T16:23:16.641Z,4.90
2023-03-06T16:25:45.864Z,4.80
2023-03-06T16:28:15.494Z,4.80
2023-03-06T16:30:43.211Z,4.70
2023-03-06T16:33:13.532Z,4.70
2023-03-06T16:35:41.245Z,4.60
2023-03-06T16:38:09.634Z,4.60
2023-03-06T16:40:41.434Z,4.60
2023-03-06T16:43:09.141Z,4.60
2023-03-06T16:45:37.339Z,4.50
2023-03-06T16:48:04.109Z,4.50
2023-03-06T16:50:32.326Z,4.40
2023-03-06T16:52:59.489Z,4.50
2023-03-06T16:55:26.849Z,4.50
2023-03-06T16:57:54.301Z,4.50
2023-03-06T17:00:22.253Z,4.50
2023-03-06T17:02:49.191Z,4.50
2023-03-06T17:05:16.242Z,4.50
2023-03-06T17:07:43.154Z,4.40
2023-03-06T17:10:11.848Z,4.40
2023-03-06T17:12:38.646Z,4.40
2023-03-06T17:15:05.991Z,4.40
2023-03-06T17:17:32.937Z,4.40
2023-03-06T17:19:59.810Z,4.40
2023-03-06T17:22:27.374Z,4.40
2023-03-06T17:24:54.455Z,4.40
2023-03-06T17:27:22.503Z,4.30
2023-03-06T17:29:49.452Z,4.30
2023-03-06T17:32:16.378Z,4.30
2023-03-06T17:34:43.261Z,4.30
2023-03-06T17:37:10.078Z,4.30
2023-03-06T17:39:37.621Z,4.30
2023-03-06T17:42:04.909Z,4.30
2023-03-06T17:44:32.038Z,4.20
2023-03-06T17:46:58.907Z,4.20
2023-03-06T17:49:25.707Z,4.20
2023-03-06T17:51:53.133Z,4.20
2023-03-06T17:54:20.061Z,4.20
2023-03-06T17:56:46.970Z,4.20
2023-03-06T17:59:16.883Z,4.20
2023-03-06T18:01:45.014Z,4.20
2023-03-06T18:04:11.833Z,4.20
2023-03-06T18:06:38.653Z,4.20
2023-03-06T18:09:05.917Z,4.20
2023-03-06T18:11:32.990Z,4.20
2023-03-06T18:13:59.715Z,4.20
2023-03-06T18:16:26.805Z,4.10
2023-03-06T18:18:54.295Z,4.10
2023-03-06T18:21:21.385Z,4.10
2023-03-06T18:23:48.135Z,4.10
2023-03-06T18:26:22.839Z,4.10
2023-03-06T18:28:52.740Z,4.00
2023-03-06T18:31:21.305Z,4.00
2023-03-06T18:33:48.671Z,4.00
2023-03-06T18:36:15.835Z,4.00
2023-03-06T18:38:44.003Z,4.00
2023-03-06T18:41:10.865Z,4.00
2023-03-06T18:43:38.386Z,3.90
2023-03-06T18:46:05.720Z,3.90
2023-03-06T18:48:32.616Z,3.90
2023-03-06T18:51:09.552Z,3.80
2023-03-06T18:53:36.615Z,3.80
2023-03-06T18:56:03.973Z,3.80
2023-03-06T18:58:30.712Z,3.80
2023-03-06T19:00:59.327Z,3.80
2023-03-06T19:03:26.415Z,3.80
2023-03-06T19:05:53.335Z,3.80
2023-03-06T19:08:20.070Z,3.70
2023-03-06T19:10:47.064Z,3.70
2023-03-06T19:13:14.403Z,3.70
2023-03-06T19:15:45.862Z,3.70
2023-03-06T19:18:14.280Z,3.60
2023-03-06T19:20:41.006Z,3.70
2023-03-06T19:23:08.278Z,3.60
2023-03-06T19:25:35.353Z,3.60
2023-03-06T19:28:02.326Z,3.60
2023-03-06T19:30:29.144Z,3.60
2023-03-06T19:32:58.958Z,3.60
2023-03-06T19:35:27.187Z,3.50
2023-03-06T19:37:54.097Z,3.50
2023-03-06T19:40:20.943Z,3.50
2023-03-06T19:42:47.804Z,3.50
2023-03-06T19:45:14.558Z,3.50
2023-03-06T19:47:41.301Z,3.50
2023-03-06T19:50:08.655Z,3.50
2023-03-06T19:52:36.424Z,3.40
2023-03-06T19:55:03.605Z,3.40
2023-03-06T19:57:30.423Z,3.40
2023-03-06T19:59:58.661Z,3.40
2023-03-06T20:02:27.320Z,3.40
2023-03-06T20:04:54.844Z,3.40
2023-03-06T20:07:21.656Z,3.40
2023-03-06T20:09:48.548Z,3.30
2023-03-06T20:12:15.455Z,3.30
2023-03-06T20:14:46.062Z,3.30
2023-03-06T20:17:12.842Z,3.30
2023-03-06T20:19:39.692Z,3.30
2023-03-06T20:22:06.492Z,3.30
2023-03-06T20:24:33.314Z,3.20
2023-03-06T20:27:00.265Z,3.30
2023-03-06T20:29:28.396Z,3.20
2023-03-06T20:31:58.527Z,3.20
2023-03-06T20:34:26.635Z,3.20
2023-03-06T20:36:53.828Z,3.20
2023-03-06T20:39:21.909Z,3.10
2023-03-06T20:41:48.970Z,3.10
2023-03-06T20:44:17.220Z,3.10
2023-03-06T20:46:44.606Z,3.10
2023-03-06T20:49:14.717Z,3.00
2023-03-06T20:51:41.797Z,3.10
2023-03-06T20:54:10.173Z,3.00
2023-03-06T20:56:39.446Z,3.00
2023-03-06T20:59:06.504Z,3.00
2023-03-06T21:01:34.902Z,3.00
2023-03-06T21:04:04.191Z,3.00
2023-03-06T21:06:31.369Z,2.90
2023-03-06T21:08:58.654Z,2.90
2023-03-06T21:11:25.692Z,2.90
2023-03-06T21:13:53.018Z,2.90
2023-03-06T21:16:21.003Z,3.00
2023-03-06T21:18:47.893Z,2.90
2023-03-06T21:21:16.723Z,2.90
2023-03-06T21:23:44.387Z,2.90
2023-03-06T21:26:15.766Z,3.00
2023-03-06T21:28:42.636Z,2.90
2023-03-06T21:31:10.347Z,3.00
2023-03-06T21:33:37.487Z,3.00
2023-03-06T21:36:04.781Z,3.00
2023-03-06T21:38:31.978Z,3.00
2023-03-06T21:41:18.335Z,3.10
2023-03-06T21:43:45.214Z,3.00
2023-03-06T21:46:12.092Z,3.00
2023-03-06T21:48:38.962Z,3.00
2023-03-06T21:51:07.104Z,3.00
2023-03-06T21:53:34.435Z,3.00
2023-03-06T21:56:01.744Z,3.00
2023-03-06T21:58:28.878Z,3.00
2023-03-06T22:00:55.774Z,3.00
2023-03-06T22:03:22.623Z,3.10
2023-03-06T22:05:49.440Z,3.10
2023-03-06T22:08:16.253Z,3.10
2023-03-06T22:10:43.077Z,3.10
2023-03-06T22:13:09.890Z,3.10
2023-03-06T22:15:36.615Z,3.10
2023-03-06T22:18:03.497Z,3.10
2023-03-06T22:20:30.308Z,3.10
2023-03-06T22:22:57.063Z,3.20
2023-03-06T22:25:23.916Z,3.20
2023-03-06T22:27:50.854Z,3.20
2023-03-06T22:30:17.923Z,3.20
2023-03-06T22:32:44.794Z,3.20
2023-03-06T22:35:11.660Z,3.20
2023-03-06T22:37:38.469Z,3.20
2023-03-06T22:40:05.562Z,3.20
2023-03-06T22:42:32.312Z,3.10
2023-03-06T22:44:59.053Z,3.10
2023-03-06T22:47:25.835Z,3.10
2023-03-06T22:49:52.600Z,3.10
2023-03-06T22:52:19.647Z,3.10
2023-03-06T22:54:48.506Z,3.00
2023-03-06T22:57:15.538Z,3.00
2023-03-06T22:59:42.469Z,3.00
2023-03-06T23:02:09.935Z,3.00
2023-03-06T23:04:36.836Z,2.90
2023-03-06T23:07:04.577Z,3.00
2023-03-06T23:09:31.348Z,3.00
2023-03-06T23:12:16.847Z,2.90
2023-03-06T23:15:02.452Z,2.90
2023-03-06T23:17:47.950Z,2.90
2023-03-06T23:20:33.210Z,2.90
2023-03-06T23:23:18.756Z,2.90
2023-03-06T23:25:45.633Z,2.90
2023-03-06T23:28:12.541Z,2.90
2023-03-06T23:30:39.554Z,2.90
2023-03-06T23:33:07.034Z,2.90
2023-03-06T23:35:34.738Z,2.90
2023-03-06T23:38:02.489Z,2.90
2023-03-06T23:40:33.080Z,2.90
2023-03-06T23:42:59.950Z,2.90
2023-03-06T23:45:27.449Z,2.90
2023-03-06T23:47:54.430Z,2.90
2023-03-06T23:50:21.524Z,2.90
2023-03-06T23:52:48.667Z,2.80
2023-03-06T23:55:15.449Z,2.80
2023-03-06T23:57:42.207Z,2.80
